createdAt,value
2019-01-26T00:03:13.674Z,16.60
2019-01-26T00:08:19.151Z,17.00
2019-01-26T00:13:23.391Z,16.20
2019-01-26T00:18:27.600Z,16.50
2019-01-26T00:23:31.863Z,16.25
2019-01-26T00:28:36.168Z,17.00
2019-01-26T00:33:43.303Z,16.60
2019-01-26T00:38:46.430Z,17.00
2019-01-26T00:43:50.677Z,16.80
2019-01-26T00:48:54.836Z,14.00
2019-01-26T00:53:58.940Z,13.75
2019-01-26T00:59:03.226Z,14.00
2019-01-26T01:04:07.610Z,13.40
2019-01-26T01:09:11.811Z,14.75
2019-01-26T01:14:16.024Z,14.50
2019-01-26T01:19:20.153Z,12.50
2019-01-26T01:24:24.187Z,15.25
2019-01-26T01:29:28.322Z,13.40
2019-01-26T01:34:32.518Z,12.60
2019-01-26T01:39:36.704Z,12.50
2019-01-26T01:44:40.851Z,11.75
2019-01-26T01:49:45.071Z,14.25
2019-01-26T01:54:49.138Z,15.00
2019-01-26T01:59:53.158Z,11.00
2019-01-26T02:04:57.301Z,12.40
2019-01-26T02:10:01.399Z,12.00
2019-01-26T02:15:07.102Z,13.83
2019-01-26T02:20:13.702Z,11.83
2019-01-26T02:25:17.888Z,11.00
2019-01-26T02:30:23.815Z,13.80
2019-01-26T02:35:27.990Z,9.80
2019-01-26T02:40:32.159Z,13.50
2019-01-26T02:45:36.286Z,12.60
2019-01-26T02:50:40.355Z,8.00
2019-01-26T02:55:44.502Z,12.75
2019-01-26T03:00:48.592Z,12.25
2019-01-26T03:05:52.624Z,10.00
2019-01-26T03:10:56.803Z,11.50
2019-01-26T03:16:00.848Z,10.25
2019-01-26T03:21:05.050Z,12.40
2019-01-26T03:26:09.290Z,9.00
2019-01-26T03:31:13.416Z,10.00
2019-01-26T03:36:17.638Z,11.60
2019-01-26T03:41:21.781Z,10.00
2019-01-26T03:46:26.032Z,10.40
2019-01-26T03:51:30.253Z,11.20
2019-01-26T03:56:34.457Z,9.40
2019-01-26T04:01:38.623Z,9.00
2019-01-26T04:06:42.757Z,9.00
2019-01-26T04:11:46.873Z,8.75
2019-01-26T04:16:51.152Z,10.00
2019-01-26T04:21:55.360Z,9.40
2019-01-26T04:26:59.452Z,11.75
2019-01-26T04:32:03.555Z,9.75
2019-01-26T04:37:07.712Z,8.00
2019-01-26T04:42:11.796Z,8.50
2019-01-26T04:47:15.918Z,8.25
2019-01-26T04:52:20.053Z,7.80
2019-01-26T04:57:24.170Z,6.60
2019-01-26T05:02:28.312Z,7.40
2019-01-26T05:07:32.593Z,9.00
2019-01-26T05:12:36.753Z,7.00
2019-01-26T05:17:40.907Z,10.50
2019-01-26T05:22:45.071Z,7.80
2019-01-26T05:27:49.410Z,6.60
2019-01-26T05:32:53.602Z,8.00
2019-01-26T05:37:57.744Z,10.20
2019-01-26T05:43:02.026Z,6.75
2019-01-26T05:48:06.339Z,7.00
2019-01-26T05:53:10.560Z,6.25
2019-01-26T05:58:14.721Z,7.00
2019-01-26T06:03:18.938Z,9.00
2019-01-26T06:08:22.971Z,6.00
2019-01-26T06:13:26.994Z,7.00
2019-01-26T06:18:31.041Z,6.80
2019-01-26T06:23:35.092Z,6.75
2019-01-26T06:28:39.137Z,5.40
2019-01-26T06:33:43.251Z,6.00
2019-01-26T06:38:47.392Z,5.80
2019-01-26T06:43:51.464Z,7.00
2019-01-26T06:48:58.809Z,7.75
2019-01-26T06:54:02.944Z,5.00
2019-01-26T06:59:07.160Z,5.33
2019-01-26T07:04:12.936Z,5.20
2019-01-26T07:09:17.020Z,6.20
2019-01-26T07:14:21.084Z,8.00
2019-01-26T07:19:25.167Z,5.50
2019-01-26T07:24:29.231Z,4.00
2019-01-26T07:29:33.591Z,6.00
2019-01-26T07:34:37.741Z,5.00
2019-01-26T07:39:41.802Z,6.00
2019-01-26T07:44:46.158Z,6.60
2019-01-26T07:49:52.507Z,5.20
2019-01-26T07:54:56.649Z,5.50
2019-01-26T08:00:00.794Z,3.40
2019-01-26T08:05:06.068Z,5.00
2019-01-26T08:10:13.230Z,3.40
2019-01-26T08:15:22.740Z,6.60
2019-01-26T08:20:27.021Z,5.00
2019-01-26T08:25:31.170Z,5.00
2019-01-26T08:30:35.355Z,3.75
2019-01-26T08:35:41.356Z,5.00
2019-01-26T08:40:45.453Z,4.25
2019-01-26T08:45:49.618Z,3.75
2019-01-26T08:50:53.818Z,4.00
2019-01-26T08:55:57.853Z,4.00
2019-01-26T09:01:01.971Z,2.67
2019-01-26T09:06:09.390Z,3.00
2019-01-26T09:11:13.550Z,3.80
2019-01-26T09:16:17.552Z,2.75
2019-01-26T09:21:21.726Z,4.00
2019-01-26T09:26:25.900Z,3.00
2019-01-26T09:31:30.007Z,3.00
2019-01-26T09:36:34.052Z,2.50
2019-01-26T09:41:38.254Z,2.00
2019-01-26T09:46:42.683Z,2.00
2019-01-26T09:51:47.017Z,3.00
2019-01-26T09:56:51.056Z,3.00
2019-01-26T10:01:57.526Z,3.00
2019-01-26T10:07:01.890Z,2.80
2019-01-26T10:12:06.166Z,2.00
2019-01-26T10:17:10.724Z,1.60
2019-01-26T10:22:14.891Z,0.00
2019-01-26T10:27:19.612Z,2.00
2019-01-26T10:59:10.281Z,1.00
2019-01-26T11:04:14.351Z,1.00
2019-01-26T11:09:18.484Z,1.00
2019-01-26T11:52:12.520Z,0.00
2019-01-26T11:57:18.912Z,1.00
2019-01-26T12:02:30.009Z,1.60
2019-01-26T12:07:34.835Z,2.00
2019-01-26T12:12:39.415Z,1.00
2019-01-26T12:17:43.661Z,1.40
2019-01-26T12:22:47.839Z,2.75
2019-01-26T12:27:53.401Z,1.50
2019-01-26T12:32:57.745Z,0.75
2019-01-26T12:38:02.173Z,1.00
2019-01-26T12:43:06.722Z,1.20
2019-01-26T12:48:11.044Z,1.50
2019-01-26T12:53:15.611Z,1.00
2019-01-26T12:58:19.812Z,1.00
2019-01-26T13:03:24.599Z,0.50
2019-01-26T13:08:29.323Z,0.75
2019-01-26T13:13:33.552Z,2.00
2019-01-26T13:18:37.919Z,2.00
2019-01-26T13:23:42.318Z,0.00
2019-01-26T13:28:46.903Z,0.00
2019-01-26T13:33:51.356Z,1.25
2019-01-26T13:38:55.825Z,0.60
2019-01-26T13:44:00.371Z,0.80
2019-01-26T13:49:05.341Z,1.00
2019-01-26T13:54:09.403Z,0.00
2019-01-26T13:59:13.985Z,0.00
2019-01-26T14:04:18.078Z,2.00
2019-01-26T14:09:22.524Z,0.00
2019-01-26T14:14:27.003Z,2.00
2019-01-26T14:19:31.416Z,1.00
2019-01-26T14:24:35.980Z,1.60
2019-01-26T14:29:40.547Z,0.75
2019-01-26T14:34:44.891Z,0.75
2019-01-26T14:39:49.497Z,0.00
2019-01-26T14:44:53.844Z,0.67
2019-01-26T14:49:58.816Z,0.00
2019-01-26T14:55:04.226Z,0.20
2019-01-26T15:00:13.501Z,0.00
2019-01-26T15:05:18.367Z,1.00
2019-01-26T15:10:23.045Z,0.00
2019-01-26T15:15:27.527Z,1.00
2019-01-26T15:20:34.362Z,0.00
2019-01-26T15:25:39.566Z,0.00
2019-01-26T15:30:45.289Z,0.50
2019-01-26T15:35:49.307Z,0.00
2019-01-26T15:40:53.610Z,0.00
2019-01-26T15:45:57.965Z,1.00
2019-01-26T15:51:02.730Z,0.00
2019-01-26T15:56:07.058Z,0.75
2019-01-26T16:01:11.785Z,0.60
2019-01-26T16:06:16.081Z,0.00
2019-01-26T16:11:20.265Z,1.00
2019-01-26T16:16:25.324Z,2.60
2019-01-26T16:21:29.930Z,0.25
2019-01-26T16:26:34.466Z,0.40
2019-01-26T16:31:38.973Z,1.00
2019-01-26T16:36:43.841Z,0.00
2019-01-26T16:41:48.270Z,0.00
2019-01-26T16:46:52.674Z,1.80
2019-01-26T16:51:57.014Z,0.00
2019-01-26T16:57:01.552Z,0.20
2019-01-26T17:02:06.156Z,0.75
2019-01-26T17:07:10.811Z,0.00
2019-01-26T17:12:15.064Z,2.00
2019-01-26T17:17:19.390Z,0.00
2019-01-26T17:22:23.813Z,1.00
2019-01-26T17:27:28.690Z,0.00
2019-01-26T17:32:33.068Z,1.00
2019-01-26T17:37:38.000Z,0.80
2019-01-26T17:42:42.888Z,1.00
2019-01-26T17:47:47.886Z,2.00
2019-01-26T17:52:52.378Z,1.50
2019-01-26T17:57:57.266Z,1.00
2019-01-26T18:03:02.329Z,0.80
2019-01-26T18:08:06.972Z,0.75
2019-01-26T18:13:11.699Z,1.00
2019-01-26T18:18:16.769Z,0.50
2019-01-26T18:23:26.460Z,1.00
2019-01-26T18:28:31.258Z,1.00
2019-01-26T18:33:36.262Z,1.00
2019-01-26T18:38:41.780Z,0.40
2019-01-26T18:43:46.659Z,0.00
2019-01-26T18:48:52.073Z,1.00
2019-01-26T18:53:56.801Z,1.40
2019-01-26T18:59:01.562Z,1.00
2019-01-26T19:04:35.519Z,1.50
2019-01-26T19:09:42.531Z,1.80
2019-01-26T19:14:53.195Z,1.20
2019-01-26T19:19:58.604Z,1.00
2019-01-26T19:25:06.417Z,1.80
2019-01-26T19:30:14.422Z,0.40
2019-01-26T19:35:19.972Z,2.00
2019-01-26T19:40:25.754Z,2.00
2019-01-26T19:45:32.420Z,2.25
2019-01-26T19:50:38.822Z,2.00
2019-01-26T19:55:44.877Z,1.25
2019-01-26T20:00:51.165Z,2.00
2019-01-26T20:05:57.633Z,1.20
2019-01-26T20:11:03.838Z,3.00
2019-01-26T20:16:10.336Z,2.00
2019-01-26T20:21:17.766Z,2.00
2019-01-26T20:26:24.696Z,2.00
2019-01-26T20:31:31.210Z,2.00
2019-01-26T20:36:37.288Z,1.00
2019-01-26T20:41:43.151Z,0.75
2019-01-26T20:46:49.222Z,1.40
2019-01-26T20:51:55.425Z,1.00
2019-01-26T20:57:01.618Z,2.75
2019-01-26T21:02:08.524Z,2.00
2019-01-26T21:07:21.527Z,0.00
2019-01-26T21:12:27.136Z,1.00
2019-01-26T21:17:32.375Z,1.20
2019-01-26T21:22:37.698Z,0.25
2019-01-26T21:27:42.942Z,0.50
2019-01-26T21:32:48.314Z,0.60
2019-01-26T21:37:53.449Z,0.20
2019-01-26T21:42:58.680Z,0.25
2019-01-26T21:48:04.175Z,1.00
2019-01-26T21:53:09.687Z,1.40
2019-01-26T21:58:15.260Z,1.00
2019-01-26T22:03:20.404Z,0.00
2019-01-26T22:08:25.422Z,0.40
2019-01-26T22:13:30.139Z,0.50
2019-01-26T22:18:34.712Z,1.40
2019-01-26T22:23:39.073Z,0.40
2019-01-26T22:28:43.423Z,1.00
2019-01-26T22:33:47.716Z,0.50
2019-01-26T22:38:52.328Z,0.75
2019-01-26T22:43:56.710Z,1.00
2019-01-26T22:49:00.981Z,2.00
2019-01-26T22:54:05.535Z,1.00
2019-01-26T22:59:09.648Z,0.00
2019-01-26T23:04:44.584Z,0.00
2019-01-26T23:10:19.006Z,0.60
2019-01-26T23:16:07.918Z,0.80
2019-01-26T23:21:42.201Z,0.00
2019-01-26T23:27:13.239Z,0.00
2019-01-26T23:32:17.359Z,0.00
2019-01-26T23:37:21.474Z,1.00
2019-01-26T23:42:25.578Z,1.00
2019-01-26T23:47:29.723Z,0.00
2019-01-26T23:52:33.989Z,0.00
2019-01-26T23:57:38.180Z,0.80
